Time;durP1;ratioP1;P1;durP2;ratioP2;P2;SDS_P1;SDS_P2;PMS_P1;PMS_P2;Temp;Humidity;BMP_temperature;BMP_pressure;BME280_temperature;BME280_humidity;BME280_pressure;Samples;Min_cycle;Max_cycle;Signal;HPM_P1;HPM_P2
2022/01/23 00:00:05;;;;;;;2.00;0.70;;;;;;;;;;4405535;32;20111;-52
2022/01/23 00:02:36;;;;;;;1.70;0.52;;;;;;;;;;4408643;32;20049;-55
2022/01/23 00:05:07;;;;;;;1.02;0.60;;;;;;;;;;4405508;32;20030;-54
2022/01/23 00:07:37;;;;;;;0.43;0.40;;;;;;;;;;4407290;32;20413;-54
2022/01/23 00:10:07;;;;;;;1.00;0.50;;;;;;;;;;4413918;32;20062;-53
2022/01/23 00:12:42;;;;;;;1.37;0.50;;;;;;;;;;4408518;32;20056;-52
2022/01/23 00:17:58;;;;;;;2.20;0.50;;;;;;;;;;4405284;32;20113;-54
2022/01/23 00:20:27;;;;;;;0.77;0.45;;;;;;;;;;4411984;32;20034;-52
2022/01/23 00:23:02;;;;;;;0.68;0.50;;;;;;;;;;4406319;32;20052;-52
2022/01/23 00:31:05;;;;;;;1.02;0.47;;;;;;;;;;4411977;32;20070;-55
2022/01/23 00:33:33;;;;;;;0.93;0.43;;;;;;;;;;4417515;32;20065;-52
2022/01/23 00:36:03;;;;;;;1.10;0.40;;;;;;;;;;4411659;32;20387;-53
2022/01/23 00:38:32;;;;;;;0.50;0.40;;;;;;;;;;4410053;32;20100;-52
2022/01/23 00:41:00;;;;;;;0.88;0.45;;;;;;;;;;4411684;32;20443;-53
2022/01/23 00:43:30;;;;;;;1.02;0.50;;;;;;;;;;4408933;32;20045;-53
2022/01/23 00:46:21;;;;;;;0.70;0.40;;;;;;;;;;4413574;32;20070;-53
2022/01/23 00:51:26;;;;;;;0.80;0.60;;;;;;;;;;4413932;32;20034;-51
2022/01/23 00:53:57;;;;;;;0.60;0.50;;;;;;;;;;4410350;32;20038;-52
2022/01/23 00:56:25;;;;;;;0.95;0.60;;;;;;;;;;4408451;32;20081;-51
2022/01/23 00:58:53;;;;;;;0.52;0.50;;;;;;;;;;4411980;32;20050;-52
2022/01/23 01:01:22;;;;;;;0.55;0.40;;;;;;;;;;4410872;32;20422;-52
2022/01/23 01:03:51;;;;;;;0.62;0.47;;;;;;;;;;4409793;32;20105;-55
2022/01/23 01:06:19;;;;;;;0.88;0.50;;;;;;;;;;4406531;32;20046;-54
2022/01/23 01:08:50;;;;;;;0.75;0.50;;;;;;;;;;4414886;32;20422;-52
2022/01/23 01:30:58;;;;;;;1.37;0.75;;;;;;;;;;4416557;32;20046;-52
2022/01/23 01:33:39;;;;;;;0.80;0.40;;;;;;;;;;4410317;32;20046;-51
2022/01/23 01:36:25;;;;;;;1.02;0.40;;;;;;;;;;4400798;32;20062;-54
2022/01/23 01:38:54;;;;;;;1.17;0.40;;;;;;;;;;4413793;32;20369;-54
2022/01/23 01:41:24;;;;;;;0.95;0.40;;;;;;;;;;4408138;32;20057;-54
2022/01/23 01:43:54;;;;;;;0.35;0.35;;;;;;;;;;4409218;32;20070;-54
2022/01/23 01:46:23;;;;;;;1.00;0.40;;;;;;;;;;4409832;32;21004;-53
2022/01/23 01:48:52;;;;;;;0.47;0.40;;;;;;;;;;4412439;32;20355;-55
2022/01/23 01:51:20;;;;;;;0.60;0.40;;;;;;;;;;4407775;32;20043;-53
2022/01/23 01:53:56;;;;;;;1.37;0.50;;;;;;;;;;4412362;32;20068;-52
2022/01/23 01:56:25;;;;;;;0.77;0.52;;;;;;;;;;4409565;32;20046;-53
2022/01/23 02:09:28;;;;;;;0.98;0.50;;;;;;;;;;4400938;32;20043;-55
2022/01/23 02:51:34;;;;;;;1.73;0.50;;;;;;;;;;4413328;32;20034;-54
2022/01/23 02:54:40;;;;;;;1.67;0.70;;;;;;;;;;4413229;32;20120;-55
2022/01/23 02:56:56;;;;;;;1.45;0.52;;;;;;;;;;4414579;32;20056;-56
2022/01/23 02:59:28;;;;;;;0.73;0.43;;;;;;;;;;4418318;32;20087;-56
2022/01/23 03:02:27;;;;;;;1.08;0.30;;;;;;;;;;4407017;32;20054;-54
2022/01/23 03:05:01;;;;;;;0.65;0.50;;;;;;;;;;4415425;32;20089;-54
2022/01/23 03:10:21;;;;;;;1.98;0.60;;;;;;;;;;4414960;32;20061;-56
2022/01/23 03:13:35;;;;;;;3.85;0.50;;;;;;;;;;4413452;32;20043;-55
2022/01/23 03:24:17;;;;;;;1.20;0.65;;;;;;;;;;4402161;32;20078;-54
2022/01/23 03:29:26;;;;;;;1.60;0.40;;;;;;;;;;4402842;32;20051;-58
2022/01/23 03:34:26;;;;;;;0.40;0.40;;;;;;;;;;4414399;32;20030;-53
2022/01/23 03:36:55;;;;;;;1.67;0.40;;;;;;;;;;4409006;32;20058;-53
2022/01/23 03:39:24;;;;;;;1.58;0.40;;;;;;;;;;4414927;32;20083;-54
2022/01/23 03:41:52;;;;;;;1.65;0.60;;;;;;;;;;4417978;32;20073;-52
2022/01/23 03:44:22;;;;;;;1.30;0.60;;;;;;;;;;4411240;32;20347;-56
2022/01/23 03:47:13;;;;;;;2.05;0.50;;;;;;;;;;4415299;32;20027;-55
2022/01/23 03:49:40;;;;;;;1.05;0.57;;;;;;;;;;4407795;32;20106;-54
2022/01/23 03:52:10;;;;;;;0.82;0.40;;;;;;;;;;4412394;32;20043;-53
2022/01/23 03:54:40;;;;;;;1.05;0.60;;;;;;;;;;4407251;32;20322;-53
2022/01/23 03:57:08;;;;;;;1.67;0.60;;;;;;;;;;4415545;32;20425;-52
2022/01/23 03:59:37;;;;;;;0.43;0.40;;;;;;;;;;4409529;32;20107;-52
2022/01/23 04:02:07;;;;;;;2.05;0.50;;;;;;;;;;4409032;32;20054;-53
2022/01/23 04:04:38;;;;;;;2.53;0.52;;;;;;;;;;4405041;32;20097;-51
2022/01/23 04:07:08;;;;;;;2.25;0.50;;;;;;;;;;4412942;32;20029;-51
2022/01/23 04:09:39;;;;;;;0.68;0.40;;;;;;;;;;4409809;32;20445;-52
2022/01/23 04:12:09;;;;;;;0.80;0.47;;;;;;;;;;4408772;32;20073;-52
2022/01/23 04:14:47;;;;;;;0.50;0.32;;;;;;;;;;4405618;32;20069;-55
2022/01/23 04:31:54;;;;;;;1.33;0.55;;;;;;;;;;4395289;32;20523;-54
2022/01/23 04:34:34;;;;;;;1.33;0.50;;;;;;;;;;4415997;32;20047;-52
2022/01/23 05:00:01;;;;;;;0.68;0.40;;;;;;;;;;4414918;32;20045;-55
2022/01/23 05:02:22;;;;;;;1.05;0.47;;;;;;;;;;4413240;32;20057;-51
2022/01/23 05:04:53;;;;;;;1.15;0.50;;;;;;;;;;4423168;32;20057;-54
2022/01/23 05:07:26;;;;;;;3.10;0.40;;;;;;;;;;4423195;32;20043;-52
2022/01/23 05:09:56;;;;;;;0.50;0.50;;;;;;;;;;4422871;32;20030;-55
2022/01/23 05:12:29;;;;;;;0.65;0.37;;;;;;;;;;4422891;32;20061;-52
2022/01/23 05:14:58;;;;;;;1.12;0.40;;;;;;;;;;4423097;32;20409;-54
2022/01/23 05:17:26;;;;;;;0.93;0.50;;;;;;;;;;4420927;32;20066;-53
2022/01/23 05:19:55;;;;;;;1.75;0.50;;;;;;;;;;4422719;32;20462;-53
2022/01/23 05:22:46;;;;;;;0.75;0.60;;;;;;;;;;4422386;32;20045;-52
2022/01/23 05:25:27;;;;;;;2.28;0.50;;;;;;;;;;4423020;32;20069;-54
2022/01/23 05:27:56;;;;;;;1.75;0.50;;;;;;;;;;4422921;32;20384;-53
2022/01/23 05:30:24;;;;;;;1.23;0.40;;;;;;;;;;4422677;32;20129;-55
2022/01/23 05:32:55;;;;;;;0.62;0.45;;;;;;;;;;4421555;32;20050;-52
2022/01/23 05:35:25;;;;;;;0.62;0.50;;;;;;;;;;4421269;32;20056;-51
2022/01/23 05:37:53;;;;;;;0.57;0.50;;;;;;;;;;4422051;32;20026;-52
2022/01/23 05:40:25;;;;;;;0.57;0.40;;;;;;;;;;4421957;32;20038;-53
2022/01/23 05:42:54;;;;;;;0.45;0.40;;;;;;;;;;4422307;32;20412;-54
2022/01/23 05:45:23;;;;;;;0.77;0.47;;;;;;;;;;4422503;32;20030;-55
2022/01/23 05:47:54;;;;;;;0.65;0.40;;;;;;;;;;4423250;32;20092;-54
2022/01/23 05:50:23;;;;;;;0.47;0.30;;;;;;;;;;4418383;32;20103;-55
2022/01/23 05:52:52;;;;;;;0.60;0.30;;;;;;;;;;4419545;32;20053;-51
2022/01/23 05:55:21;;;;;;;0.40;0.37;;;;;;;;;;4422680;32;20076;-52
2022/01/23 05:57:50;;;;;;;1.02;0.40;;;;;;;;;;4422092;32;20069;-52
2022/01/23 06:00:19;;;;;;;0.70;0.50;;;;;;;;;;4422643;32;20035;-54
2022/01/23 06:02:52;;;;;;;0.55;0.28;;;;;;;;;;4422920;32;20363;-53
2022/01/23 06:05:22;;;;;;;0.40;0.30;;;;;;;;;;4422755;32;20034;-55
2022/01/23 06:07:51;;;;;;;0.93;0.50;;;;;;;;;;4422695;32;20035;-53
2022/01/23 06:10:25;;;;;;;0.40;0.40;;;;;;;;;;4422150;32;20075;-55
2022/01/23 06:12:54;;;;;;;1.05;0.47;;;;;;;;;;4419904;32;20380;-53
2022/01/23 06:15:22;;;;;;;1.40;0.40;;;;;;;;;;4421470;32;20053;-53
2022/01/23 06:17:51;;;;;;;0.50;0.50;;;;;;;;;;4422087;32;20165;-55
2022/01/23 06:20:23;;;;;;;0.62;0.50;;;;;;;;;;4422366;32;20041;-51
2022/01/23 06:22:52;;;;;;;1.05;0.50;;;;;;;;;;4410809;32;20038;-56
2022/01/23 06:25:23;;;;;;;0.80;0.47;;;;;;;;;;4405848;32;20030;-52
2022/01/23 06:27:52;;;;;;;1.87;0.60;;;;;;;;;;4418394;32;20113;-55
2022/01/23 06:30:21;;;;;;;0.73;0.35;;;;;;;;;;4422470;32;20361;-53
2022/01/23 06:32:49;;;;;;;0.73;0.47;;;;;;;;;;4419308;32;20101;-55
2022/01/23 06:35:17;;;;;;;0.43;0.32;;;;;;;;;;4422536;32;20105;-55
2022/01/23 06:37:45;;;;;;;0.40;0.40;;;;;;;;;;4421683;32;20081;-56
2022/01/23 06:40:14;;;;;;;2.35;0.47;;;;;;;;;;4421990;32;20179;-53
2022/01/23 06:42:46;;;;;;;0.88;0.50;;;;;;;;;;4420855;32;20038;-54
2022/01/23 06:45:15;;;;;;;1.00;0.60;;;;;;;;;;4410218;32;20084;-53
2022/01/23 06:47:43;;;;;;;0.73;0.43;;;;;;;;;;4402783;32;20422;-52
2022/01/23 06:50:12;;;;;;;1.60;0.50;;;;;;;;;;4406386;32;20042;-51
2022/01/23 06:52:41;;;;;;;0.95;0.45;;;;;;;;;;4406268;32;20054;-51
2022/01/23 06:55:09;;;;;;;0.50;0.40;;;;;;;;;;4405416;32;20073;-54
2022/01/23 06:57:38;;;;;;;0.98;0.45;;;;;;;;;;4406101;32;20088;-53
2022/01/23 07:00:07;;;;;;;0.52;0.52;;;;;;;;;;4402170;32;20018;-54
2022/01/23 07:02:36;;;;;;;1.08;0.40;;;;;;;;;;4405891;32;20031;-52
2022/01/23 07:05:06;;;;;;;1.05;0.52;;;;;;;;;;4407123;32;20092;-52
2022/01/23 07:07:36;;;;;;;0.50;0.40;;;;;;;;;;4405084;32;20420;-52
2022/01/23 07:10:08;;;;;;;0.40;0.32;;;;;;;;;;4407094;32;20057;-55
2022/01/23 07:12:38;;;;;;;0.40;0.40;;;;;;;;;;4404256;32;20054;-55
2022/01/23 07:15:06;;;;;;;0.60;0.45;;;;;;;;;;4404782;32;20137;-55
2022/01/23 07:17:41;;;;;;;0.80;0.50;;;;;;;;;;4407062;32;20042;-54
2022/01/23 07:20:12;;;;;;;0.50;0.50;;;;;;;;;;4407017;32;20057;-54
2022/01/23 07:22:40;;;;;;;1.27;0.50;;;;;;;;;;4404366;32;20468;-54
2022/01/23 07:25:09;;;;;;;0.68;0.43;;;;;;;;;;4406454;32;20080;-55
2022/01/23 07:27:46;;;;;;;0.32;0.32;;;;;;;;;;4406069;32;20026;-52
2022/01/23 07:33:02;;;;;;;0.62;0.50;;;;;;;;;;4407363;32;20415;-51
2022/01/23 07:35:30;;;;;;;0.40;0.40;;;;;;;;;;4408972;32;20030;-55
2022/01/23 07:37:59;;;;;;;0.55;0.40;;;;;;;;;;4409703;32;20034;-56
2022/01/23 07:40:27;;;;;;;1.55;0.35;;;;;;;;;;4405858;32;20049;-52
2022/01/23 07:42:56;;;;;;;0.70;0.40;;;;;;;;;;4406395;32;20171;-55
2022/01/23 07:45:25;;;;;;;0.95;0.40;;;;;;;;;;4414943;32;20045;-52
2022/01/23 07:47:55;;;;;;;0.30;0.30;;;;;;;;;;4424017;32;20042;-55
2022/01/23 07:50:24;;;;;;;0.50;0.50;;;;;;;;;;4415870;32;20128;-52
2022/01/23 07:52:52;;;;;;;0.77;0.40;;;;;;;;;;4422901;32;20043;-52
2022/01/23 07:55:22;;;;;;;0.80;0.40;;;;;;;;;;4423982;32;20057;-54
2022/01/23 07:57:52;;;;;;;0.40;0.30;;;;;;;;;;4420549;32;20113;-55
2022/01/23 08:00:22;;;;;;;0.70;0.40;;;;;;;;;;4407925;32;20050;-52
2022/01/23 08:02:50;;;;;;;0.30;0.30;;;;;;;;;;4405613;32;20098;-54
2022/01/23 08:05:22;;;;;;;1.02;0.50;;;;;;;;;;4408909;32;20411;-56
2022/01/23 08:07:52;;;;;;;1.05;0.50;;;;;;;;;;4406055;32;20053;-53
2022/01/23 08:10:21;;;;;;;0.37;0.37;;;;;;;;;;4409153;32;20051;-52
2022/01/23 08:12:49;;;;;;;0.70;0.47;;;;;;;;;;4409064;32;20050;-51
2022/01/23 08:15:18;;;;;;;0.30;0.30;;;;;;;;;;4408371;32;20031;-55
2022/01/23 08:17:46;;;;;;;0.93;0.60;;;;;;;;;;4408458;32;20094;-53
2022/01/23 08:20:15;;;;;;;0.40;0.40;;;;;;;;;;4408526;32;20034;-52
2022/01/23 08:22:43;;;;;;;0.50;0.50;;;;;;;;;;4408010;32;20039;-52
2022/01/23 08:25:11;;;;;;;0.30;0.30;;;;;;;;;;4408221;32;20402;-53
2022/01/23 08:27:40;;;;;;;0.40;0.35;;;;;;;;;;4408212;32;20381;-53
2022/01/23 08:30:09;;;;;;;0.68;0.47;;;;;;;;;;4408952;32;20413;-53
2022/01/23 08:32:37;;;;;;;0.90;0.50;;;;;;;;;;4408714;32;20064;-53
2022/01/23 08:35:06;;;;;;;0.40;0.40;;;;;;;;;;4408955;32;20047;-52
2022/01/23 08:37:34;;;;;;;0.70;0.40;;;;;;;;;;4408633;32;20121;-51
2022/01/23 08:40:03;;;;;;;0.50;0.40;;;;;;;;;;4408153;32;20035;-54
2022/01/23 08:42:31;;;;;;;0.30;0.30;;;;;;;;;;4406382;32;20100;-52
2022/01/23 08:45:00;;;;;;;0.32;0.30;;;;;;;;;;4404632;32;20072;-53
2022/01/23 08:47:28;;;;;;;0.40;0.40;;;;;;;;;;4409189;32;20044;-50
2022/01/23 08:49:57;;;;;;;0.60;0.37;;;;;;;;;;4422764;32;20433;-51
2022/01/23 08:52:25;;;;;;;0.30;0.30;;;;;;;;;;4421157;32;20400;-53
2022/01/23 08:54:56;;;;;;;0.30;0.30;;;;;;;;;;4421195;32;20038;-52
2022/01/23 08:57:26;;;;;;;0.62;0.40;;;;;;;;;;4423536;32;20053;-51
2022/01/23 09:00:04;;;;;;;0.60;0.40;;;;;;;;;;4423178;32;20038;-52
2022/01/23 09:02:32;;;;;;;0.40;0.40;;;;;;;;;;4423534;32;20076;-53
2022/01/23 09:05:01;;;;;;;0.50;0.50;;;;;;;;;;4421020;32;20046;-54
2022/01/23 09:07:29;;;;;;;0.45;0.30;;;;;;;;;;4420625;32;20106;-52
2022/01/23 09:10:03;;;;;;;0.52;0.32;;;;;;;;;;4415145;32;20465;-52
2022/01/23 09:12:45;;;;;;;0.30;0.30;;;;;;;;;;4408065;32;20034;-52
2022/01/23 09:15:13;;;;;;;0.50;0.30;;;;;;;;;;4408056;32;20034;-52
2022/01/23 09:17:42;;;;;;;0.32;0.30;;;;;;;;;;4414829;32;20015;-52
2022/01/23 09:20:10;;;;;;;0.73;0.40;;;;;;;;;;4422985;32;20053;-54
2022/01/23 09:22:40;;;;;;;0.40;0.40;;;;;;;;;;4421980;32;20413;-53
2022/01/23 09:25:08;;;;;;;0.30;0.30;;;;;;;;;;4420642;32;20094;-51
2022/01/23 09:27:38;;;;;;;0.30;0.30;;;;;;;;;;4419367;32;20108;-52
2022/01/23 09:30:17;;;;;;;0.45;0.30;;;;;;;;;;4422879;32;20038;-54
2022/01/23 09:32:46;;;;;;;0.70;0.37;;;;;;;;;;4422633;32;20030;-53
2022/01/23 09:35:15;;;;;;;0.32;0.30;;;;;;;;;;4422382;32;20065;-55
2022/01/23 09:37:43;;;;;;;0.30;0.30;;;;;;;;;;4421390;32;20050;-53
2022/01/23 09:40:12;;;;;;;0.50;0.40;;;;;;;;;;4422284;32;20053;-52
2022/01/23 09:42:50;;;;;;;0.55;0.30;;;;;;;;;;4421311;32;20053;-51
2022/01/23 09:45:20;;;;;;;0.73;0.50;;;;;;;;;;4423159;32;20030;-52
2022/01/23 09:47:49;;;;;;;1.10;0.40;;;;;;;;;;4422316;32;20057;-55
2022/01/23 09:50:17;;;;;;;0.50;0.30;;;;;;;;;;4422203;32;20042;-55
2022/01/23 09:52:45;;;;;;;0.40;0.30;;;;;;;;;;4420859;32;20046;-53
2022/01/23 09:55:15;;;;;;;0.30;0.30;;;;;;;;;;4422197;32;20046;-54
2022/01/23 09:57:45;;;;;;;0.45;0.28;;;;;;;;;;4421045;32;20051;-52
2022/01/23 10:00:20;;;;;;;0.40;0.30;;;;;;;;;;4420764;32;20098;-55
2022/01/23 10:02:50;;;;;;;0.30;0.30;;;;;;;;;;4418774;32;20401;-55
2022/01/23 10:05:19;;;;;;;0.43;0.30;;;;;;;;;;4400698;32;20344;-54
2022/01/23 10:07:48;;;;;;;0.40;0.30;;;;;;;;;;4409276;32;20084;-53
2022/01/23 10:10:21;;;;;;;0.70;0.45;;;;;;;;;;4407182;32;20062;-52
2022/01/23 10:12:51;;;;;;;0.75;0.50;;;;;;;;;;4404829;32;20100;-54
2022/01/23 10:15:19;;;;;;;0.60;0.30;;;;;;;;;;4414095;32;20026;-53
2022/01/23 10:17:49;;;;;;;0.68;0.40;;;;;;;;;;4406531;32;20027;-53
2022/01/23 10:20:18;;;;;;;0.40;0.40;;;;;;;;;;4403570;32;20026;-52
2022/01/23 10:22:50;;;;;;;0.30;0.30;;;;;;;;;;4407322;32;20152;-55
2022/01/23 10:25:21;;;;;;;0.52;0.50;;;;;;;;;;4410755;32;20342;-56
2022/01/23 10:28:03;;;;;;;0.82;0.35;;;;;;;;;;4415867;32;20331;-56
2022/01/23 10:30:44;;;;;;;0.95;0.30;;;;;;;;;;4401593;32;20084;-53
2022/01/23 10:33:17;;;;;;;0.45;0.30;;;;;;;;;;4408213;32;20050;-56
2022/01/23 10:35:52;;;;;;;0.77;0.32;;;;;;;;;;4404277;32;20046;-56
2022/01/23 10:38:21;;;;;;;0.43;0.40;;;;;;;;;;4406568;32;20038;-55
2022/01/23 10:41:02;;;;;;;0.37;0.30;;;;;;;;;;4406950;32;20089;-54
2022/01/23 10:49:05;;;;;;;1.48;0.60;;;;;;;;;;4413199;32;20062;-50
2022/01/23 10:51:38;;;;;;;0.30;0.30;;;;;;;;;;4405293;32;20054;-51
2022/01/23 10:54:07;;;;;;;0.30;0.30;;;;;;;;;;4414873;32;20081;-53
2022/01/23 10:56:55;;;;;;;0.37;0.37;;;;;;;;;;4406290;32;20056;-53
2022/01/23 10:59:24;;;;;;;0.62;0.35;;;;;;;;;;4414057;32;20448;-50
2022/01/23 11:02:21;;;;;;;0.40;0.40;;;;;;;;;;4408264;32;20088;-53
2022/01/23 11:05:02;;;;;;;0.47;0.30;;;;;;;;;;4411466;32;20486;-54
2022/01/23 11:07:32;;;;;;;0.30;0.30;;;;;;;;;;4416736;32;20072;-53
2022/01/23 11:10:03;;;;;;;0.68;0.37;;;;;;;;;;4415479;32;20080;-51
2022/01/23 11:18:08;;;;;;;0.95;0.40;;;;;;;;;;4404199;32;20120;-56
2022/01/23 11:20:41;;;;;;;0.75;0.50;;;;;;;;;;4407999;32;20112;-55
2022/01/23 11:23:17;;;;;;;0.73;0.30;;;;;;;;;;4410657;32;20069;-52
2022/01/23 11:25:58;;;;;;;0.80;0.30;;;;;;;;;;4410533;32;20030;-51
2022/01/23 11:28:31;;;;;;;0.37;0.30;;;;;;;;;;4408047;32;20052;-55
2022/01/23 11:31:00;;;;;;;0.30;0.30;;;;;;;;;;4415604;32;20046;-55
2022/01/23 11:33:29;;;;;;;0.30;0.30;;;;;;;;;;4411357;32;20102;-51
2022/01/23 11:35:57;;;;;;;0.47;0.37;;;;;;;;;;4416153;32;20446;-52
2022/01/23 11:38:26;;;;;;;0.30;0.30;;;;;;;;;;4408428;32;20051;-54
2022/01/23 11:54:40;;;;;;;0.57;0.40;;;;;;;;;;4406134;32;20046;-54
2022/01/23 11:57:27;;;;;;;1.15;0.30;;;;;;;;;;4417075;32;20054;-51
2022/01/23 11:59:59;;;;;;;0.95;0.40;;;;;;;;;;4406947;32;20042;-50
2022/01/23 12:02:36;;;;;;;0.88;0.50;;;;;;;;;;4404966;32;20054;-53
2022/01/23 12:05:12;;;;;;;1.65;0.50;;;;;;;;;;4408005;32;20121;-53
2022/01/23 12:07:41;;;;;;;1.45;0.50;;;;;;;;;;4406252;32;20110;-52
2022/01/23 12:10:14;;;;;;;1.87;0.60;;;;;;;;;;4403918;32;20030;-51
2022/01/23 12:12:49;;;;;;;0.82;0.37;;;;;;;;;;4408324;32;20096;-53
2022/01/23 12:18:16;;;;;;;1.17;0.60;;;;;;;;;;4412180;32;20030;-55
2022/01/23 12:20:46;;;;;;;2.25;0.70;;;;;;;;;;4408859;32;20038;-52
2022/01/23 12:23:14;;;;;;;3.05;0.50;;;;;;;;;;4414483;32;20082;-50
2022/01/23 12:25:44;;;;;;;3.60;0.65;;;;;;;;;;4411542;32;20043;-51
2022/01/23 12:28:22;;;;;;;2.15;0.50;;;;;;;;;;4409937;32;20061;-51
2022/01/23 12:30:51;;;;;;;2.80;0.62;;;;;;;;;;4413451;32;20034;-54
2022/01/23 12:33:20;;;;;;;8.73;0.70;;;;;;;;;;4403101;32;21008;-55
2022/01/23 12:35:59;;;;;;;5.12;0.73;;;;;;;;;;4416035;32;20051;-52
2022/01/23 12:38:30;;;;;;;3.17;0.50;;;;;;;;;;4416449;32;20042;-53
2022/01/23 12:41:14;;;;;;;1.35;0.68;;;;;;;;;;4412319;32;20102;-53
2022/01/23 12:43:42;;;;;;;3.47;0.70;;;;;;;;;;4406875;32;20443;-54
2022/01/23 12:46:16;;;;;;;6.20;0.95;;;;;;;;;;4409490;32;20524;-51
2022/01/23 12:48:48;;;;;;;2.30;0.77;;;;;;;;;;4409080;32;20054;-51
2022/01/23 12:51:20;;;;;;;2.87;0.70;;;;;;;;;;4409756;32;20074;-52
2022/01/23 12:53:51;;;;;;;1.92;0.80;;;;;;;;;;4415921;32;20065;-54
2022/01/23 12:56:21;;;;;;;2.05;0.50;;;;;;;;;;4416524;32;20056;-52
2022/01/23 12:59:05;;;;;;;4.15;0.70;;;;;;;;;;4409267;32;20096;-52
2022/01/23 13:01:34;;;;;;;4.03;0.68;;;;;;;;;;4405156;32;20038;-54
2022/01/23 13:04:04;;;;;;;1.98;0.57;;;;;;;;;;4413112;32;20038;-52
2022/01/23 13:06:52;;;;;;;2.90;0.60;;;;;;;;;;4411414;32;20088;-54
2022/01/23 13:09:45;;;;;;;4.25;0.60;;;;;;;;;;4407309;32;20063;-54
2022/01/23 13:26:32;;;;;;;2.97;0.62;;;;;;;;;;4410580;32;20038;-51
2022/01/23 13:31:46;;;;;;;2.17;0.70;;;;;;;;;;4413099;32;20145;-55
2022/01/23 13:34:25;;;;;;;2.20;0.50;;;;;;;;;;4410386;32;20474;-53
2022/01/23 13:36:59;;;;;;;2.45;0.50;;;;;;;;;;4402042;32;20054;-53
2022/01/23 13:39:30;;;;;;;0.73;0.35;;;;;;;;;;4409426;32;20041;-54
2022/01/23 13:41:59;;;;;;;2.78;0.60;;;;;;;;;;4406390;32;20047;-52
2022/01/23 13:53:36;;;;;;;2.62;0.50;;;;;;;;;;4411199;32;20069;-52
2022/01/23 14:04:40;;;;;;;1.50;0.50;;;;;;;;;;4408919;32;20078;-52
2022/01/23 14:07:08;;;;;;;2.58;0.60;;;;;;;;;;4408350;32;20038;-54
2022/01/23 14:09:39;;;;;;;2.40;0.45;;;;;;;;;;4412098;32;20054;-54
2022/01/23 14:12:08;;;;;;;2.45;0.60;;;;;;;;;;4408924;32;20026;-51
2022/01/23 14:14:48;;;;;;;2.10;0.43;;;;;;;;;;4412108;32;20092;-55
2022/01/23 14:17:17;;;;;;;1.12;0.50;;;;;;;;;;4399420;32;20082;-54
2022/01/23 14:20:06;;;;;;;2.37;0.60;;;;;;;;;;4407631;32;20034;-54
2022/01/23 14:22:39;;;;;;;0.70;0.40;;;;;;;;;;4406805;32;20054;-52
2022/01/23 14:25:15;;;;;;;1.15;0.43;;;;;;;;;;4403243;32;20043;-51
2022/01/23 14:28:04;;;;;;;4.20;0.60;;;;;;;;;;4401744;32;20043;-52
2022/01/23 14:30:33;;;;;;;4.00;0.60;;;;;;;;;;4410995;32;20073;-55
2022/01/23 14:33:11;;;;;;;2.95;0.50;;;;;;;;;;4407327;32;20412;-51
2022/01/23 14:35:39;;;;;;;3.53;0.40;;;;;;;;;;4406505;32;20519;-53
2022/01/23 14:38:15;;;;;;;6.28;1.10;;;;;;;;;;4415175;32;20104;-52
2022/01/23 14:41:00;;;;;;;4.85;0.52;;;;;;;;;;4405162;32;20108;-54
2022/01/23 14:43:30;;;;;;;6.60;0.80;;;;;;;;;;4412426;32;20068;-52
2022/01/23 14:45:59;;;;;;;2.78;0.60;;;;;;;;;;4416190;32;20159;-52
2022/01/23 14:48:27;;;;;;;3.08;0.73;;;;;;;;;;4403769;32;20102;-52
2022/01/23 14:51:02;;;;;;;1.73;0.60;;;;;;;;;;4403722;32;20057;-54
2022/01/23 14:53:30;;;;;;;6.12;0.68;;;;;;;;;;4409041;32;22046;-52
2022/01/23 14:56:00;;;;;;;2.85;0.60;;;;;;;;;;4413365;32;20065;-55
2022/01/23 14:58:30;;;;;;;3.40;0.47;;;;;;;;;;4409164;32;20088;-53
2022/01/23 15:00:58;;;;;;;2.35;0.50;;;;;;;;;;4417568;32;20088;-53
2022/01/23 15:03:28;;;;;;;1.75;0.50;;;;;;;;;;4415833;32;20043;-54
2022/01/23 15:06:05;;;;;;;3.12;0.50;;;;;;;;;;4409189;32;20058;-54
2022/01/23 15:08:34;;;;;;;1.37;0.32;;;;;;;;;;4411463;32;20027;-55
2022/01/23 15:11:03;;;;;;;1.12;0.50;;;;;;;;;;4414819;32;20080;-55
2022/01/23 15:13:31;;;;;;;2.22;0.55;;;;;;;;;;4416648;32;20592;-53
2022/01/23 15:16:01;;;;;;;4.85;0.70;;;;;;;;;;4404893;32;20123;-54
2022/01/23 15:18:30;;;;;;;1.42;0.40;;;;;;;;;;4412500;32;20038;-53
2022/01/23 15:20:58;;;;;;;3.65;0.40;;;;;;;;;;4412399;32;20099;-52
2022/01/23 15:23:27;;;;;;;3.67;0.47;;;;;;;;;;4414939;32;20357;-55
2022/01/23 15:25:55;;;;;;;2.42;0.50;;;;;;;;;;4405380;32;20376;-53
2022/01/23 15:28:23;;;;;;;1.77;0.43;;;;;;;;;;4409362;32;20049;-52
2022/01/23 15:30:52;;;;;;;2.10;0.47;;;;;;;;;;4413056;32;20428;-56
2022/01/23 15:33:20;;;;;;;2.60;0.60;;;;;;;;;;4424972;32;20060;-52
2022/01/23 15:35:48;;;;;;;1.17;0.40;;;;;;;;;;4410252;32;20145;-55
2022/01/23 15:38:19;;;;;;;1.48;0.30;;;;;;;;;;4414376;32;20070;-52
2022/01/23 15:40:49;;;;;;;3.55;0.70;;;;;;;;;;4410965;32;20074;-55
2022/01/23 15:43:18;;;;;;;1.12;0.35;;;;;;;;;;4407673;32;20039;-55
2022/01/23 15:45:46;;;;;;;2.25;0.50;;;;;;;;;;4407249;32;20057;-55
2022/01/23 15:48:14;;;;;;;4.25;0.60;;;;;;;;;;4419228;32;20038;-54
2022/01/23 15:50:43;;;;;;;1.92;0.50;;;;;;;;;;4408146;32;20361;-55
2022/01/23 15:53:11;;;;;;;2.28;0.40;;;;;;;;;;4405254;32;20038;-52
2022/01/23 15:55:39;;;;;;;1.37;0.40;;;;;;;;;;4407987;32;20059;-55
2022/01/23 15:58:08;;;;;;;2.75;0.40;;;;;;;;;;4407004;32;20622;-55
2022/01/23 16:00:36;;;;;;;2.65;0.45;;;;;;;;;;4415035;32;20039;-55
2022/01/23 16:03:05;;;;;;;3.17;0.52;;;;;;;;;;4414004;32;20061;-54
2022/01/23 16:05:33;;;;;;;2.08;0.47;;;;;;;;;;4410640;32;20339;-55
2022/01/23 16:08:02;;;;;;;1.55;0.45;;;;;;;;;;4421902;32;20075;-55
2022/01/23 16:10:31;;;;;;;2.75;0.50;;;;;;;;;;4413848;32;20061;-52
2022/01/23 16:12:59;;;;;;;2.60;0.50;;;;;;;;;;4423435;32;20086;-52
2022/01/23 16:15:29;;;;;;;1.27;0.47;;;;;;;;;;4412957;32;20108;-53
2022/01/23 16:17:58;;;;;;;1.02;0.50;;;;;;;;;;4414028;32;23936;-51
2022/01/23 16:20:26;;;;;;;1.23;0.40;;;;;;;;;;4412949;32;20405;-52
2022/01/23 16:22:55;;;;;;;1.45;0.60;;;;;;;;;;4409620;32;20042;-55
2022/01/23 16:25:23;;;;;;;2.03;0.40;;;;;;;;;;4409150;32;20050;-52
2022/01/23 16:27:52;;;;;;;2.17;0.68;;;;;;;;;;4414408;32;20088;-55
2022/01/23 16:30:21;;;;;;;2.37;0.55;;;;;;;;;;4411372;32;20050;-52
2022/01/23 16:32:56;;;;;;;1.23;0.40;;;;;;;;;;4411059;32;20042;-54
2022/01/23 16:35:24;;;;;;;4.32;0.68;;;;;;;;;;4403764;32;20080;-51
2022/01/23 16:37:53;;;;;;;2.28;0.50;;;;;;;;;;4407057;32;20080;-54
2022/01/23 16:40:22;;;;;;;1.65;0.68;;;;;;;;;;4410073;32;20073;-54
2022/01/23 16:42:50;;;;;;;2.80;0.70;;;;;;;;;;4409588;32;20061;-52
2022/01/23 16:45:19;;;;;;;2.37;0.50;;;;;;;;;;4418602;32;20090;-52
2022/01/23 16:47:47;;;;;;;2.33;0.65;;;;;;;;;;4406974;32;20081;-52
2022/01/23 16:50:16;;;;;;;3.47;0.62;;;;;;;;;;4408197;32;20115;-55
2022/01/23 16:52:44;;;;;;;1.00;0.35;;;;;;;;;;4416590;32;20118;-55
2022/01/23 16:55:13;;;;;;;1.27;0.60;;;;;;;;;;4407344;32;20544;-55
2022/01/23 16:57:41;;;;;;;2.12;0.50;;;;;;;;;;4408498;32;20111;-54
2022/01/23 17:00:11;;;;;;;2.33;0.50;;;;;;;;;;4404484;32;20437;-52
2022/01/23 17:03:00;;;;;;;1.42;0.47;;;;;;;;;;4412146;32;20035;-56
2022/01/23 17:05:29;;;;;;;1.05;0.40;;;;;;;;;;4410974;32;20049;-52
2022/01/23 17:07:58;;;;;;;1.98;0.40;;;;;;;;;;4405426;32;20331;-52
2022/01/23 17:10:26;;;;;;;1.90;0.50;;;;;;;;;;4412006;32;20373;-53
2022/01/23 17:12:54;;;;;;;1.70;0.50;;;;;;;;;;4411284;32;20099;-52
2022/01/23 17:15:23;;;;;;;3.45;0.60;;;;;;;;;;4403698;32;20456;-53
2022/01/23 17:17:52;;;;;;;1.45;0.50;;;;;;;;;;4407265;32;20022;-52
2022/01/23 17:20:22;;;;;;;1.48;0.40;;;;;;;;;;4416647;32;20027;-54
2022/01/23 17:22:50;;;;;;;0.93;0.50;;;;;;;;;;4406698;32;20418;-53
2022/01/23 17:25:19;;;;;;;1.77;0.60;;;;;;;;;;4409006;32;20092;-55
2022/01/23 17:27:48;;;;;;;2.55;0.47;;;;;;;;;;4410382;32;20046;-54
2022/01/23 17:30:18;;;;;;;2.05;0.60;;;;;;;;;;4408306;32;20095;-54
2022/01/23 17:32:47;;;;;;;2.53;0.50;;;;;;;;;;4418169;32;20038;-51
2022/01/23 17:35:16;;;;;;;1.70;0.47;;;;;;;;;;4416045;32;20042;-51
2022/01/23 17:37:46;;;;;;;1.67;0.68;;;;;;;;;;4412037;32;20048;-51
2022/01/23 17:40:15;;;;;;;2.60;0.50;;;;;;;;;;4407762;32;20043;-53
2022/01/23 17:42:43;;;;;;;2.08;0.50;;;;;;;;;;4404733;32;20046;-54
2022/01/23 17:45:18;;;;;;;1.87;0.60;;;;;;;;;;4411585;32;20373;-54
2022/01/23 17:50:20;;;;;;;0.95;0.47;;;;;;;;;;4408661;32;20085;-53
2022/01/23 17:52:51;;;;;;;1.55;0.60;;;;;;;;;;4404614;32;20086;-52
2022/01/23 17:55:19;;;;;;;3.17;0.70;;;;;;;;;;4412964;32;20094;-55
2022/01/23 17:57:47;;;;;;;1.70;0.50;;;;;;;;;;4412766;32;20037;-56
2022/01/23 18:00:17;;;;;;;1.95;0.40;;;;;;;;;;4418388;32;20049;-54
2022/01/23 18:02:45;;;;;;;1.52;0.60;;;;;;;;;;4407560;32;20031;-55
2022/01/23 18:05:14;;;;;;;2.45;0.37;;;;;;;;;;4408935;32;20068;-53
2022/01/23 18:07:42;;;;;;;1.52;0.50;;;;;;;;;;4415182;32;20075;-54
2022/01/23 18:10:10;;;;;;;3.40;0.75;;;;;;;;;;4413469;32;20058;-55
2022/01/23 18:12:40;;;;;;;2.25;0.43;;;;;;;;;;4408307;32;20087;-55
2022/01/23 18:15:09;;;;;;;3.33;0.73;;;;;;;;;;4400553;32;20038;-55
2022/01/23 18:17:37;;;;;;;1.62;0.70;;;;;;;;;;4401078;32;20738;-52
2022/01/23 18:20:06;;;;;;;3.10;0.75;;;;;;;;;;4411358;32;20034;-54
2022/01/23 18:22:34;;;;;;;1.45;0.40;;;;;;;;;;4408182;32;20042;-55
2022/01/23 18:25:03;;;;;;;1.17;0.50;;;;;;;;;;4404989;32;20076;-56
2022/01/23 18:27:31;;;;;;;1.27;0.40;;;;;;;;;;4411893;32;20091;-54